Anvik, Alaska
Current Conditions -  °F | °C
As of 6:56 PM on Sunday 23 Nov 2014 (Local Time) from PANV Reporting Station
Overcast Overcast  
Wind Chill: -9°   Ceiling: 11000
Heat Index:   Visibility: 10mi
Dew Point:   Wind: 13mph
Humidity: 72%   Direction: 30°NNE
Pressure: 29.55"   Gusts: NA
Location:  62.66°N, 160.21°W
Report Text: PANV 240356Z AUTO 03011KT 10SM SCT065 OVC110 M14/M18 A2955 RMK AO1
Loading
Personal Weather Stations






























Interactive Weather Map New forecast layout! Learn more

10-Day Weather Forecast

Advertisements
Track Severe Weather on mobile